Time;durP1;ratioP1;P1;durP2;ratioP2;P2;SDS_P1;SDS_P2;PMS_P1;PMS_P2;Temp;Humidity;BMP_temperature;BMP_pressure;BME280_temperature;BME280_humidity;BME280_pressure;Samples;Min_cycle;Max_cycle;Signal;HPM_P1;HPM_P2
2022/01/03 00:00:24;;;;;;;12.73;5.38;;;;;;;3.19;63.41;92948.91;5041500;28;20536;-91
2022/01/03 00:03:21;;;;;;;15.00;6.30;;;;;;;2.94;64.95;92900.84;5055629;28;20043;-90
2022/01/03 00:06:14;;;;;;;;;;;;;;;;;;;;;
2022/01/03 00:09:03;;;;;;;;;;;;;;;;;;;;;
2022/01/03 00:11:51;;;;;;;;;;;;;;;;;;;;;
2022/01/03 00:14:39;;;;;;;17.80;8.05;;;;;;;2.94;69.04;92908.59;5058871;28;20047;-92
2022/01/03 00:17:33;;;;;;;20.10;8.65;;;;;;;3.05;69.90;92923.31;5055918;28;20020;-92
2022/01/03 00:20:30;;;;;;;21.08;8.38;;;;;;;2.83;70.02;92884.34;5050346;28;20071;-91
2022/01/03 00:23:25;;;;;;;17.73;8.10;;;;;;;3.01;69.78;92914.44;5045561;28;20474;-92
2022/01/03 00:26:02;;;;;;;16.42;7.35;;;;;;;3.11;69.82;92937.13;5054885;28;20129;-91
2022/01/03 00:29:38;;;;;;;15.80;7.93;;;;;;;2.99;70.38;92913.88;5058683;28;20056;-92
2022/01/03 00:36:19;;;;;;;17.13;6.90;;;;;;;2.83;70.20;92896.47;5011981;28;20402;-92
2022/01/03 00:39:13;;;;;;;16.48;6.57;;;;;;;2.84;69.62;92896.25;5040056;28;20036;-91
2022/01/03 00:41:58;;;;;;;21.90;6.90;;;;;;;2.75;69.15;92892.47;5055425;28;20064;-92
2022/01/03 00:44:43;;;;;;;15.23;6.50;;;;;;;3.15;69.79;92951.16;5033118;28;20036;-91
2022/01/03 00:47:47;;;;;;;15.23;6.93;;;;;;;2.73;69.03;92894.50;5043099;28;20043;-92
2022/01/03 00:50:46;;;;;;;;;;;;;;;;;;;;;
2022/01/03 00:53:54;;;;;;;;;;;;;;;;;;;;;
2022/01/03 00:56:58;;;;;;;12.10;5.10;;;;;;;2.63;67.73;92869.19;5055660;28;20064;-90
2022/01/03 01:00:04;;;;;;;14.63;4.70;;;;;;;2.69;67.64;92876.06;5052240;28;20036;-91
2022/01/03 01:03:09;;;;;;;11.68;5.47;;;;;;;2.61;68.01;92878.19;5053738;28;20473;-90
2022/01/03 01:05:58;;;;;;;12.43;4.78;;;;;;;2.60;67.67;92874.84;5056591;28;20046;-91
2022/01/03 01:08:39;;;;;;;10.98;4.50;;;;;;;2.57;67.32;92864.97;5051087;28;20047;-91
2022/01/03 01:11:42;;;;;;;;;;;;;;;;;;;;;
2022/01/03 01:14:38;;;;;;;;;;;;;;;2.99;67.70;92924.22;5068122;28;20029;-91
2022/01/03 01:17:20;;;;;;;10.85;4.78;;;;;;;2.61;68.33;92875.63;5052057;28;19915;-92
2022/01/03 01:19:53;;;;;;;8.45;3.50;;;;;;;2.95;67.46;92937.84;5054128;28;20071;-91
2022/01/03 01:28:49;;;;;;;9.82;4.03;;;;;;;2.82;65.55;92910.44;5056873;28;20141;-90
2022/01/03 01:31:45;;;;;;;15.60;5.53;;;;;;;2.56;66.74;92878.88;5053424;28;20032;-90
2022/01/03 01:34:42;;;;;;;;;;;;;;;2.98;67.04;92927.81;5033040;28;20043;-91
2022/01/03 01:37:35;;;;;;;;;;;;;;;;;;;;;
2022/01/03 01:40:37;;;;;;;10.73;3.17;;;;;;;2.96;66.06;92924.69;5069928;28;20512;-92
2022/01/03 01:43:39;;;;;;;9.65;3.67;;;;;;;2.60;65.58;92869.66;5038613;28;20033;-91
2022/01/03 01:46:36;;;;;;;10.18;3.83;;;;;;;2.55;65.38;92866.97;5048383;28;20067;-91
2022/01/03 01:49:36;;;;;;;12.98;5.18;;;;;;;2.81;65.15;92903.69;5036791;28;20029;-90
2022/01/03 01:52:37;;;;;;;12.50;4.47;;;;;;;2.87;65.94;92900.19;5051365;28;20362;-91
2022/01/03 01:55:16;;;;;;;12.50;5.22;;;;;;;2.59;65.69;92857.75;5040212;28;20029;-91
2022/01/03 01:58:30;;;;;;;9.60;4.88;;;;;;;2.62;66.41;92861.69;5050379;28;20051;-90
2022/01/03 02:01:15;;;;;;;14.60;5.97;;;;;;;2.55;67.18;92856.66;5034354;28;20041;-91
2022/01/03 02:04:28;;;;;;;;;;;;;;;;;;;;;
2022/01/03 02:07:33;;;;;;;13.35;5.60;;;;;;;2.75;68.05;92892.47;5052852;28;20094;-91
2022/01/03 02:10:25;;;;;;;13.75;5.70;;;;;;;2.56;68.09;92860.78;5045089;28;20086;-91
2022/01/03 02:13:14;;;;;;;13.23;5.25;;;;;;;2.47;68.17;92849.22;5045814;28;20035;-92
2022/01/03 02:16:07;;;;;;;12.97;5.57;;;;;;;2.61;68.10;92870.44;5056898;28;20033;-91
2022/01/03 02:19:07;;;;;;;;;;;;;;;;;;;;;
2022/01/03 02:22:11;;;;;;;;;;;;;;;;;;;;;
2022/01/03 02:25:08;;;;;;;11.10;4.75;;;;;;;2.44;68.36;92849.69;5066952;28;20056;-92
2022/01/03 02:28:00;;;;;;;;;;;;;;;;;;;;;
2022/01/03 02:34:03;;;;;;;;;;;;;;;;;;;;;
2022/01/03 02:37:00;;;;;;;;;;;;;;;;;;;;;
2022/01/03 02:39:38;;;;;;;12.80;4.85;;;;;;;2.46;67.17;92847.66;5042047;28;20032;-91
2022/01/03 02:42:20;;;;;;;12.30;5.03;;;;;;;2.75;68.03;92886.50;5057729;28;20043;-91
2022/01/03 02:45:15;;;;;;;11.65;5.22;;;;;;;2.77;66.96;92880.09;5059497;28;20045;-91
2022/01/03 02:48:28;;;;;;;;;;;;;;;;;;;;;
2022/01/03 02:51:33;;;;;;;20.13;5.68;;;;;;;2.49;67.84;92829.91;5045008;28;20041;-91
2022/01/03 02:54:32;;;;;;;15.27;5.60;;;;;;;2.45;67.93;92815.84;5039865;28;20036;-92
2022/01/03 02:57:43;;;;;;;13.18;5.47;;;;;;;2.47;68.34;92823.38;5050514;28;20139;-91
2022/01/03 03:00:57;;;;;;;14.60;4.80;;;;;;;2.73;68.15;92863.47;5065333;28;20035;-91
2022/01/03 03:03:36;;;;;;;12.60;4.35;;;;;;;2.60;67.78;92822.34;5056216;28;20052;-90
2022/01/03 03:09:21;;;;;;;15.18;5.32;;;;;;;2.51;67.78;92814.16;5054890;28;20060;-91
2022/01/03 03:12:00;;;;;;;11.10;4.10;;;;;;;2.50;67.39;92807.44;5024914;28;20462;-91
2022/01/03 03:14:41;;;;;;;10.63;4.03;;;;;;;2.52;66.25;92796.84;5041917;28;20079;-90
2022/01/03 03:17:35;;;;;;;11.57;4.43;;;;;;;2.61;66.63;92806.63;5058152;28;20043;-91
2022/01/03 03:20:43;;;;;;;7.85;3.88;;;;;;;2.68;67.09;92815.03;5032359;28;20032;-90
2022/01/03 03:23:27;;;;;;;8.57;4.00;;;;;;;2.57;66.69;92802.13;5037017;28;20045;-91
2022/01/03 03:26:40;;;;;;;12.25;4.70;;;;;;;2.60;66.05;92791.34;5037689;28;20369;-91
2022/01/03 03:29:29;;;;;;;10.45;4.55;;;;;;;2.67;66.34;92813.44;5047622;28;20037;-91
2022/01/03 03:32:15;;;;;;;9.57;4.32;;;;;;;2.53;66.65;92775.97;5038948;28;20029;-91
2022/01/03 03:34:51;;;;;;;15.93;5.10;;;;;;;2.48;66.58;92773.28;5026356;28;20036;-91
2022/01/03 03:37:58;;;;;;;13.05;5.38;;;;;;;2.68;66.86;92798.75;5058417;28;20025;-91
2022/01/03 03:40:50;;;;;;;;;;;;;;;;;;;;;
2022/01/03 03:43:33;;;;;;;16.15;5.35;;;;;;;2.59;67.01;92771.66;5073871;28;20036;-90
2022/01/03 03:46:14;;;;;;;13.40;5.13;;;;;;;2.84;67.11;92816.09;5056104;28;20403;-91
2022/01/03 03:49:03;;;;;;;15.52;5.10;;;;;;;2.50;67.15;92764.28;5039143;28;20040;-92
2022/01/03 03:51:43;;;;;;;13.50;5.15;;;;;;;2.70;68.12;92794.09;5056836;28;20033;-93
2022/01/03 03:54:18;;;;;;;14.18;4.90;;;;;;;2.43;68.23;92766.22;5037602;28;20576;-91
2022/01/03 03:57:05;;;;;;;11.20;4.70;;;;;;;2.77;67.97;92812.88;5054377;28;20035;-91
2022/01/03 03:59:44;;;;;;;10.32;4.78;;;;;;;2.43;68.04;92761.06;5040761;28;20047;-91
2022/01/03 04:02:47;;;;;;;12.73;4.85;;;;;;;2.62;67.15;92790.09;5055362;28;20039;-91
2022/01/03 04:05:49;;;;;;;10.80;4.63;;;;;;;2.39;67.72;92759.16;5038219;28;20045;-91
2022/01/03 04:08:58;;;;;;;;;;;;;;;;;;;;;
2022/01/03 04:12:06;;;;;;;13.25;4.95;;;;;;;2.56;67.21;92801.34;5023362;28;20033;-91
2022/01/03 04:15:13;;;;;;;11.88;4.63;;;;;;;2.44;66.83;92759.25;5046133;28;20029;-91
2022/01/03 04:18:18;;;;;;;;;;;;;;;;;;;;;
2022/01/03 04:20:51;;;;;;;12.68;4.88;;;;;;;2.82;67.24;92810.38;5051882;28;20483;-92
2022/01/03 04:23:38;;;;;;;;;;;;;;;;;;;;;
2022/01/03 04:26:39;;;;;;;13.27;4.93;;;;;;;2.79;68.05;92815.22;5069415;28;20028;-92
2022/01/03 04:29:27;;;;;;;12.87;5.07;;;;;;;2.51;67.49;92788.31;5042798;28;20076;-91
2022/01/03 04:32:37;;;;;;;11.60;4.43;;;;;;;2.61;66.98;92787.72;5050868;28;20044;-92
2022/01/03 04:35:44;;;;;;;14.40;5.15;;;;;;;2.36;67.44;92764.78;5046698;28;20033;-91
2022/01/03 04:38:32;;;;;;;;;;;;;;;;;;;;;
2022/01/03 04:41:14;;;;;;;;;;;;;;;;;;;;;
2022/01/03 04:44:05;;;;;;;13.35;4.63;;;;;;;2.60;67.37;92804.25;5054398;28;20071;-91
2022/01/03 04:46:51;;;;;;;13.48;5.03;;;;;;;2.28;68.16;92748.63;5079437;28;20077;-91
2022/01/03 04:49:41;;;;;;;;;;;;;;;;;;;;;
2022/01/03 04:52:31;;;;;;;11.45;4.53;;;;;;;2.27;67.60;92733.34;5053078;28;20024;-92
2022/01/03 04:55:13;;;;;;;12.57;5.28;;;;;;;2.28;67.51;92733.13;5029341;28;20037;-91
2022/01/03 04:58:08;;;;;;;15.40;5.38;;;;;;;2.32;68.17;92742.97;5022464;28;20420;-91
2022/01/03 05:00:48;;;;;;;15.10;5.10;;;;;;;2.36;67.82;92728.59;5047929;28;20044;-90
2022/01/03 05:03:35;;;;;;;13.05;4.90;;;;;;;2.37;68.38;92735.34;5050177;28;20025;-91
2022/01/03 05:06:14;;;;;;;11.00;4.85;;;;;;;2.48;68.82;92762.97;5051265;28;20517;-90
2022/01/03 05:08:48;;;;;;;14.68;6.20;;;;;;;2.40;68.77;92727.13;5038219;28;20115;-91
2022/01/03 05:11:44;;;;;;;;;;;;;;;;;;;;;
2022/01/03 05:20:35;;;;;;;12.07;5.25;;;;;;;2.41;69.72;92706.25;5053643;28;20040;-91
2022/01/03 05:23:23;;;;;;;16.98;6.03;;;;;;;2.62;69.70;92740.97;5036723;28;20036;-91
2022/01/03 05:26:27;;;;;;;14.20;5.70;;;;;;;2.27;69.22;92689.41;5025028;28;20032;-91
2022/01/03 05:29:03;;;;;;;15.45;6.05;;;;;;;2.35;69.33;92711.53;5035536;28;20369;-90
2022/01/03 05:31:56;;;;;;;16.45;6.15;;;;;;;2.59;69.30;92744.03;5039347;28;20024;-91
2022/01/03 05:34:47;;;;;;;17.45;5.57;;;;;;;2.75;69.76;92754.63;5041382;28;20033;-92
2022/01/03 05:37:40;;;;;;;17.25;5.75;;;;;;;2.46;69.56;92723.63;5040514;28;20396;-92
2022/01/03 05:40:24;;;;;;;16.98;5.53;;;;;;;2.24;69.49;92695.84;5055390;28;20021;-92
2022/01/03 05:43:31;;;;;;;12.38;5.60;;;;;;;2.53;70.01;92750.13;5039227;28;20039;-91
2022/01/03 05:46:05;;;;;;;21.30;7.13;;;;;;;2.37;69.78;92719.84;5027609;28;20067;-92
2022/01/03 05:49:17;;;;;;;14.85;6.07;;;;;;;2.31;69.27;92710.44;5024388;28;20106;-90
2022/01/03 05:52:02;;;;;;;19.27;5.93;;;;;;;2.36;68.99;92718.25;5047737;28;20047;-91
2022/01/03 05:54:55;;;;;;;16.08;5.53;;;;;;;2.32;68.87;92699.88;5055079;28;20032;-92
2022/01/03 06:04:01;;;;;;;14.48;4.78;;;;;;;2.54;67.33;92756.84;5056794;28;20056;-90
2022/01/03 06:07:12;;;;;;;13.00;4.30;;;;;;;2.58;67.04;92763.13;5050417;28;20036;-92
2022/01/03 06:10:10;;;;;;;;;;;;;;;;;;;;;
2022/01/03 06:12:54;;;;;;;15.93;4.88;;;;;;;2.40;66.16;92740.03;5053101;28;20044;-91
2022/01/03 06:15:52;;;;;;;17.13;5.13;;;;;;;2.32;66.11;92717.16;5036992;28;20481;-91
2022/01/03 06:18:27;;;;;;;10.27;5.13;;;;;;;2.31;66.47;92718.94;5053271;28;20043;-91
2022/01/03 06:24:10;;;;;;;16.85;6.18;;;;;;;2.33;67.31;92714.34;5045144;28;20040;-91
2022/01/03 06:27:08;;;;;;;17.00;5.32;;;;;;;2.61;67.10;92764.47;5034061;28;20125;-91
2022/01/03 06:30:05;;;;;;;;;;;;;;;;;;;;;
2022/01/03 06:36:10;;;;;;;17.52;6.25;;;;;;;2.53;67.03;92739.78;5063400;28;20044;-91
2022/01/03 06:39:15;;;;;;;;;;;;;;;;;;;;;
2022/01/03 06:45:39;;;;;;;;;;;;;;;;;;;;;
2022/01/03 06:49:07;;;;;;;18.50;5.97;;;;;;;2.28;69.35;92688.41;5053892;28;20657;-92
2022/01/03 06:51:59;;;;;;;22.77;6.25;;;;;;;2.37;69.44;92705.13;5052006;28;20670;-91
2022/01/03 06:55:07;;;;;;;20.02;6.32;;;;;;;2.21;69.50;92680.81;5041004;28;20505;-90
2022/01/03 06:58:33;;;;;;;20.58;6.63;;;;;;;2.64;70.17;92746.72;5053098;28;20397;-90
2022/01/03 07:01:32;;;;;;;19.83;6.65;;;;;;;2.38;71.29;92690.41;5052279;28;20048;-91
2022/01/03 07:04:38;;;;;;;24.52;6.78;;;;;;;2.64;71.12;92736.38;5057723;28;20037;-91
2022/01/03 07:07:16;;;;;;;;;;;;;;;;;;;;;
2022/01/03 07:10:20;;;;;;;;;;;;;;;;;;;;;
2022/01/03 07:20:27;;;;;;;;;;;;;;;;;;;;;
2022/01/03 07:34:38;;;;;;;;;;;;;;;;;;;;;
2022/01/03 08:04:37;;;;;;;20.13;7.25;;;;;;;16.45;35.11;92706.34;5097184;27;20162;-90
2022/01/03 09:02:42;;;;;;;21.63;7.05;;;;;;;10.20;47.08;92783.53;5095498;28;20377;-89
2022/01/03 09:05:40;;;;;;;21.08;7.35;;;;;;;9.93;47.67;92770.16;5059312;28;20381;-88
2022/01/03 09:12:39;;;;;;;18.13;7.28;;;;;;;10.21;48.47;92792.94;5053294;28;20035;-89
2022/01/03 10:03:19;;;;;;;16.77;6.40;;;;;;;11.74;42.28;92794.06;5074470;28;20043;-88
2022/01/03 10:06:18;;;;;;;18.52;7.05;;;;;;;11.04;43.77;92798.91;5058276;28;20464;-88
2022/01/03 10:24:33;;;;;;;24.35;7.68;;;;;;;12.29;40.80;92760.94;5071440;28;20463;-88
2022/01/03 10:43:22;;;;;;;26.17;9.43;;;;;;;12.84;42.25;92754.91;5075533;28;20032;-88
2022/01/03 11:01:53;;;;;;;22.10;7.65;;;;;;;11.34;44.91;92747.16;5074848;28;20547;-89
2022/01/03 11:11:10;;;;;;;24.30;8.65;;;;;;;10.10;50.14;92733.16;5078320;28;20028;-88
2022/01/03 11:25:51;;;;;;;27.20;9.35;;;;;;;11.91;43.08;92715.66;5035743;28;20140;-88
2022/01/03 11:40:54;;;;;;;22.80;8.25;;;;;;;10.98;47.13;92687.38;5034185;28;20099;-88
2022/01/03 11:47:37;;;;;;;18.02;7.05;;;;;;;10.02;49.98;92677.00;5033753;28;20032;-89
2022/01/03 11:54:47;;;;;;;28.45;11.70;;;;;;;9.34;53.10;92662.97;5033753;28;20096;-88
2022/01/03 12:09:28;;;;;;;27.30;9.85;;;;;;;10.06;51.12;92641.38;5054940;28;20488;-88
2022/01/03 12:11:54;;;;;;;26.02;9.15;;;;;;;10.26;50.99;92650.81;5070443;28;20493;-88
2022/01/03 12:14:24;;;;;;;25.42;9.85;;;;;;;10.16;50.81;92614.34;5005477;28;20373;-88
2022/01/03 12:20:57;;;;;;;29.63;10.10;;;;;;;9.37;53.93;92648.59;5074409;28;20134;-88
2022/01/03 12:39:10;;;;;;;31.40;10.55;;;;;;;9.44;54.18;92624.75;5073725;28;20550;-88
2022/01/03 12:45:11;;;;;;;27.88;10.48;;;;;;;8.97;55.30;92640.00;5073848;28;20086;-88
2022/01/03 12:47:38;;;;;;;28.58;10.93;;;;;;;9.08;54.84;92632.88;5072654;28;20028;-88
2022/01/03 12:50:29;;;;;;;35.40;12.40;;;;;;;9.01;55.10;92641.03;5057154;28;20036;-87
2022/01/03 12:56:48;;;;;;;37.92;13.30;;;;;;;9.23;55.72;92640.59;5074150;28;20047;-87
2022/01/03 12:59:16;;;;;;;33.13;13.00;;;;;;;9.43;55.04;92599.66;5056086;28;20040;-87
2022/01/03 13:10:00;;;;;;;41.83;16.70;;;;;;;8.92;59.87;92617.31;5073157;28;20051;-88
2022/01/03 13:12:26;;;;;;;34.88;15.52;;;;;;;8.34;60.92;92562.34;5072494;28;20037;-88
2022/01/03 13:19:08;;;;;;;40.90;15.85;;;;;;;8.69;60.63;92633.63;5073380;28;20040;-88
2022/01/03 13:26:20;;;;;;;42.58;17.55;;;;;;;8.95;60.46;92629.03;5073798;28;20415;-88
2022/01/03 13:36:04;;;;;;;38.55;15.88;;;;;;;8.98;60.51;92606.81;5063479;28;20059;-88
2022/01/03 13:49:21;;;;;;;25.10;8.77;;;;;;;8.36;67.58;92617.63;5070758;28;20036;-88
2022/01/03 13:51:59;;;;;;;33.60;13.63;;;;;;;8.05;68.08;92578.66;5042037;28;20056;-89
2022/01/03 13:54:59;;;;;;;;;;;;;;;;;;;;;
2022/01/03 13:57:39;;;;;;;29.55;9.48;;;;;;;7.01;72.83;92532.31;5051828;28;20094;-92
2022/01/03 14:00:55;;;;;;;;;;;;;;;;;;;;;
2022/01/03 14:03:52;;;;;;;12.95;6.50;;;;;;;7.16;75.93;92578.38;5046497;28;20068;-89
2022/01/03 14:06:51;;;;;;;30.42;11.55;;;;;;;6.65;79.13;92568.75;5006944;28;20068;-89
2022/01/03 14:09:55;;;;;;;;;;;;;;;;;;;;;
2022/01/03 14:16:19;;;;;;;32.95;11.70;;;;;;;7.13;77.97;92602.31;5068709;28;20059;-90
2022/01/03 14:19:15;;;;;;;31.15;12.23;;;;;;;6.32;79.09;92530.22;5041578;28;20048;-88
2022/01/03 14:22:47;;;;;;;27.13;11.52;;;;;;;6.86;79.21;92598.16;5056994;28;20037;-90
2022/01/03 14:25:44;;;;;;;32.22;12.43;;;;;;;6.40;79.27;92548.72;5058055;28;20024;-89
2022/01/03 14:29:13;;;;;;;;;;;;;;;;;;;;;
2022/01/03 14:31:54;;;;;;;27.60;11.43;;;;;;;6.70;80.03;92609.59;5057166;28;20123;-89
2022/01/03 14:35:34;;;;;;;32.53;11.27;;;;;;;6.52;80.16;92551.06;5058840;28;20024;-90
2022/01/03 14:38:40;;;;;;;29.40;11.07;;;;;;;6.29;81.35;92573.13;5075519;28;20046;-88
2022/01/03 14:45:17;;;;;;;;;;;;;;;;;;;;;
2022/01/03 14:48:49;;;;;;;29.75;11.80;;;;;;;6.68;81.82;92620.25;5012584;28;20022;-88
2022/01/03 14:51:44;;;;;;;28.80;12.77;;;;;;;6.27;81.58;92566.63;5042768;28;20097;-89
2022/01/03 14:54:43;;;;;;;;;;;;;;;;;;;;;
2022/01/03 14:58:05;;;;;;;35.75;14.18;;;;;;;6.43;81.83;92635.81;5071396;28;20036;-90
2022/01/03 15:01:46;;;;;;;;;;;;;;;;;;;;;
2022/01/03 15:04:51;;;;;;;35.95;13.85;;;;;;;5.81;82.91;92551.66;5074350;28;20040;-89
2022/01/03 15:08:27;;;;;;;37.10;13.10;;;;;;;5.99;82.92;92610.19;5072415;28;20030;-88
2022/01/03 15:14:42;;;;;;;;;;;;;;;;;;;;;
2022/01/03 15:17:40;;;;;;;;;;;;;;;;;;;;;
2022/01/03 15:20:36;;;;;;;37.55;13.80;;;;;;;5.59;84.16;92570.00;5051265;28;20029;-91
2022/01/03 15:23:32;;;;;;;33.92;14.57;;;;;;;5.70;83.87;92591.63;5038368;28;20124;-88
2022/01/03 15:26:20;;;;;;;34.58;13.55;;;;;;;5.81;83.65;92599.19;5052922;28;20027;-89
2022/01/03 15:29:22;;;;;;;38.33;13.75;;;;;;;5.70;84.28;92594.22;5034980;28;20058;-89
2022/01/03 15:32:15;;;;;;;33.15;13.52;;;;;;;5.60;84.05;92574.94;5054302;28;20020;-89
2022/01/03 15:35:03;;;;;;;37.70;14.18;;;;;;;5.47;85.00;92565.03;5047560;28;20087;-89
2022/01/03 15:38:04;;;;;;;38.47;14.25;;;;;;;5.40;85.49;92559.25;5036758;28;20182;-89
2022/01/03 15:41:02;;;;;;;;;;;;;;;;;;;;;
2022/01/03 15:43:58;;;;;;;;;;;;;;;;;;;;;
2022/01/03 15:46:31;;;;;;;28.02;11.23;;;;;;;5.25;86.98;92538.44;5054834;28;20040;-89
2022/01/03 15:49:27;;;;;;;29.65;11.82;;;;;;;5.55;87.27;92585.31;5035416;28;20116;-87
2022/01/03 15:52:24;;;;;;;;;;;;;;;;;;;;;
2022/01/03 15:58:09;;;;;;;32.65;11.68;;;;;;;5.62;86.76;92585.84;5046195;28;20067;-88
2022/01/03 16:01:12;;;;;;;;;;;;;;;;;;;;;
2022/01/03 16:03:45;;;;;;;23.65;9.85;;;;;;;5.31;86.98;92547.78;5066668;28;20070;-88
2022/01/03 16:07:23;;;;;;;;;;;;;;;;;;;;;
2022/01/03 16:10:27;;;;;;;;;;;;;;;;;;;;;
2022/01/03 16:13:11;;;;;;;18.20;8.43;;;;;;;5.24;86.19;92547.25;5084494;28;20468;-88
2022/01/03 16:15:47;;;;;;;25.30;8.77;;;;;;;5.27;86.08;92544.13;5059019;28;20060;-88
2022/01/03 16:18:39;;;;;;;;;;;;;;;;;;;;;
2022/01/03 16:21:18;;;;;;;21.95;8.63;;;;;;;5.25;85.44;92567.00;5041096;28;20045;-89
2022/01/03 16:24:29;;;;;;;25.73;9.15;;;;;;;5.52;85.12;92604.00;5054650;28;20119;-89
2022/01/03 16:27:00;;;;;;;23.33;8.98;;;;;;;5.19;84.72;92559.16;5051040;28;20036;-89
2022/01/03 16:29:50;;;;;;;20.95;9.13;;;;;;;5.14;84.18;92566.13;5031870;28;20051;-89
2022/01/03 16:32:24;;;;;;;20.30;9.23;;;;;;;5.42;84.62;92614.31;5055783;28;20028;-90
2022/01/03 16:35:33;;;;;;;25.90;9.68;;;;;;;5.41;84.84;92618.72;5055905;28;20071;-89
2022/01/03 16:38:26;;;;;;;20.10;8.15;;;;;;;5.59;84.40;92656.50;5055091;28;20020;-89
2022/01/03 16:41:40;;;;;;;19.50;8.45;;;;;;;5.59;83.96;92659.09;5055555;28;20036;-89
2022/01/03 16:44:47;;;;;;;27.10;9.07;;;;;;;5.49;84.21;92656.41;5051172;28;20377;-92
2022/01/03 16:47:21;;;;;;;28.52;10.80;;;;;;;5.34;84.19;92615.56;5034473;28;20032;-90
2022/01/03 16:50:05;;;;;;;28.27;11.60;;;;;;;5.32;83.60;92607.25;5037590;28;20024;-89
2022/01/03 16:53:04;;;;;;;;;;;;;;;;;;;;;
2022/01/03 16:56:00;;;;;;;27.27;12.55;;;;;;;5.20;83.38;92568.50;5067928;28;20029;-91
2022/01/03 16:59:05;;;;;;;27.80;12.13;;;;;;;5.39;83.68;92607.03;5052183;28;20575;-89
2022/01/03 17:01:44;;;;;;;31.27;12.75;;;;;;;5.13;83.07;92567.94;5066921;28;20035;-90
2022/01/03 17:21:30;;;;;;;;;;;;;;;4.93;83.19;92627.47;5087045;22;20344;-78
2022/01/03 17:23:56;;;;;;;22.33;8.50;;;;;;;4.82;82.92;92618.84;5086288;28;19932;-77
2022/01/03 17:26:23;;;;;;;22.30;8.73;;;;;;;4.80;82.71;92623.50;5062181;28;20032;-79
2022/01/03 17:28:50;;;;;;;21.60;8.55;;;;;;;4.75;83.24;92633.78;5075374;28;20064;-78
2022/01/03 17:31:16;;;;;;;23.73;9.43;;;;;;;4.77;83.20;92632.53;5087944;28;20283;-79
2022/01/03 17:33:42;;;;;;;24.42;8.93;;;;;;;4.77;83.01;92629.94;5094423;28;20446;-79
2022/01/03 17:36:11;;;;;;;27.20;9.93;;;;;;;4.74;83.21;92621.88;5058577;28;20034;-79
2022/01/03 17:38:37;;;;;;;25.80;8.93;;;;;;;4.75;84.09;92615.66;5075448;28;20090;-78
2022/01/03 17:41:04;;;;;;;26.80;10.35;;;;;;;4.72;84.06;92618.75;5063765;28;20024;-76
2022/01/03 17:43:31;;;;;;;29.95;14.43;;;;;;;4.65;84.06;92618.94;5073399;28;20042;-78
2022/01/03 17:45:59;;;;;;;33.47;13.68;;;;;;;4.60;84.13;92629.28;5075756;28;20568;-78
2022/01/03 17:48:26;;;;;;;26.05;12.32;;;;;;;4.55;84.42;92626.63;5094580;28;20036;-77
2022/01/03 17:50:52;;;;;;;29.30;11.70;;;;;;;4.56;84.13;92635.97;5075374;28;20077;-82
2022/01/03 17:53:18;;;;;;;30.08;10.85;;;;;;;4.55;84.42;92637.00;5076792;28;20028;-81
2022/01/03 17:55:46;;;;;;;25.42;10.02;;;;;;;4.55;84.23;92631.81;5093918;28;20027;-81
2022/01/03 17:58:13;;;;;;;27.40;9.75;;;;;;;4.54;84.48;92622.47;5064964;28;20409;-80
2022/01/03 18:00:39;;;;;;;27.48;9.70;;;;;;;4.56;85.05;92615.22;5074028;28;20038;-82
2022/01/03 18:03:05;;;;;;;24.20;8.88;;;;;;;4.56;84.98;92610.03;5054154;28;20035;-79
2022/01/03 18:05:30;;;;;;;23.17;9.50;;;;;;;4.55;84.89;92603.31;5087188;28;20036;-80
2022/01/03 18:07:56;;;;;;;23.88;9.80;;;;;;;4.63;84.91;92612.44;5094667;28;20558;-79
2022/01/03 18:10:23;;;;;;;21.55;9.52;;;;;;;4.62;84.93;92608.28;5094390;28;20039;-79
2022/01/03 18:12:53;;;;;;;21.30;8.65;;;;;;;4.67;84.85;92606.50;5097471;28;20401;-78
2022/01/03 18:15:19;;;;;;;26.00;9.88;;;;;;;4.69;84.95;92604.47;5096568;28;20485;-79
2022/01/03 18:17:44;;;;;;;22.67;8.45;;;;;;;4.71;85.12;92597.22;5075354;28;20380;-79
2022/01/03 18:20:11;;;;;;;25.23;9.82;;;;;;;4.74;85.44;92594.13;5092120;28;20077;-78
2022/01/03 18:22:37;;;;;;;31.27;9.10;;;;;;;4.77;85.38;92585.88;5069431;28;20130;-77
2022/01/03 18:25:04;;;;;;;23.67;9.50;;;;;;;4.80;85.37;92580.16;5090970;28;20036;-78
2022/01/03 18:27:30;;;;;;;25.13;9.52;;;;;;;4.84;85.35;92569.28;5067471;28;20035;-80
2022/01/03 18:29:56;;;;;;;22.35;8.98;;;;;;;4.86;85.27;92575.00;5071876;28;20035;-81
2022/01/03 18:32:21;;;;;;;29.20;9.68;;;;;;;4.88;85.33;92588.53;5060652;28;20440;-79
2022/01/03 18:34:47;;;;;;;29.63;9.75;;;;;;;4.90;85.00;92578.69;5091570;28;20166;-81
2022/01/03 18:37:13;;;;;;;27.08;9.93;;;;;;;4.94;85.25;92580.53;5058835;28;20040;-77
2022/01/03 18:39:39;;;;;;;23.02;8.73;;;;;;;4.99;85.41;92597.94;5073989;28;20057;-81
2022/01/03 18:42:06;;;;;;;18.70;8.57;;;;;;;5.04;85.26;92605.75;5075495;28;20028;-79
2022/01/03 18:44:32;;;;;;;28.90;9.85;;;;;;;5.05;85.48;92612.53;5072075;28;20035;-78
2022/01/03 18:46:58;;;;;;;22.38;8.52;;;;;;;5.01;85.51;92611.44;5073333;28;20028;-81
2022/01/03 18:49:24;;;;;;;25.73;9.25;;;;;;;5.10;85.16;92625.53;5095518;28;20031;-79
2022/01/03 18:51:49;;;;;;;26.65;9.68;;;;;;;5.11;84.89;92621.91;5100667;28;20367;-79
2022/01/03 18:54:16;;;;;;;24.58;9.60;;;;;;;5.17;84.97;92630.50;5082393;28;20040;-80
2022/01/03 18:56:46;;;;;;;25.65;10.23;;;;;;;5.18;84.98;92627.66;5099994;28;20088;-79
2022/01/03 18:59:12;;;;;;;25.98;9.18;;;;;;;5.19;84.85;92629.22;5082612;28;20040;-80
2022/01/03 19:01:38;;;;;;;26.45;10.50;;;;;;;5.22;84.95;92628.75;5081264;28;20031;-80
2022/01/03 19:04:04;;;;;;;25.77;10.55;;;;;;;5.22;85.04;92614.97;5100286;28;20036;-80
2022/01/03 19:06:30;;;;;;;26.05;10.30;;;;;;;5.22;84.83;92607.97;5082765;28;20032;-80
2022/01/03 19:08:56;;;;;;;24.50;9.95;;;;;;;5.25;85.05;92601.50;5080251;28;20081;-80
2022/01/03 19:11:22;;;;;;;22.92;9.85;;;;;;;5.28;85.15;92602.81;5067159;28;20031;-80
2022/01/03 19:13:48;;;;;;;33.65;11.40;;;;;;;5.29;84.83;92599.16;5084965;28;20112;-80
2022/01/03 19:16:13;;;;;;;29.50;10.50;;;;;;;5.28;84.77;92600.22;5098151;28;20020;-79
2022/01/03 19:18:42;;;;;;;26.63;9.40;;;;;;;5.32;84.63;92604.66;5100050;28;20086;-79
2022/01/03 19:21:08;;;;;;;21.10;9.32;;;;;;;5.32;84.43;92606.47;5100584;28;20650;-80
2022/01/03 19:23:36;;;;;;;31.92;10.15;;;;;;;5.34;84.41;92604.41;5081118;28;20504;-78
2022/01/03 19:26:03;;;;;;;30.10;10.93;;;;;;;5.34;84.45;92609.59;5087013;28;20047;-80
2022/01/03 19:28:28;;;;;;;29.23;10.18;;;;;;;5.35;84.52;92613.75;5082709;28;20054;-79
2022/01/03 19:30:54;;;;;;;24.77;10.60;;;;;;;5.35;84.32;92621.53;5074172;28;20036;-80
2022/01/03 19:38:53;;;;;;;22.83;9.50;;;;;;;5.37;84.28;92609.88;5099065;28;20043;-80
2022/01/03 19:41:19;;;;;;;19.88;8.55;;;;;;;5.37;84.05;92614.28;5100019;28;20031;-79
2022/01/03 19:43:50;;;;;;;19.02;7.93;;;;;;;5.36;84.14;92613.50;5099536;28;20032;-79
2022/01/03 19:46:16;;;;;;;19.98;8.48;;;;;;;5.39;84.14;92613.00;5099737;28;20043;-80
2022/01/03 19:48:42;;;;;;;20.48;7.82;;;;;;;5.38;84.05;92613.25;5100538;28;20036;-81
2022/01/03 19:51:07;;;;;;;24.27;8.30;;;;;;;5.39;83.96;92607.03;5100220;28;20134;-80
2022/01/03 19:53:34;;;;;;;23.65;8.75;;;;;;;5.39;84.08;92607.03;5080662;28;20028;-80
2022/01/03 19:56:00;;;;;;;25.23;8.95;;;;;;;5.40;83.84;92600.78;5099585;28;20047;-80
2022/01/03 19:58:26;;;;;;;23.00;8.13;;;;;;;5.40;83.74;92601.59;5099262;28;20477;-80
2022/01/03 20:00:53;;;;;;;21.35;9.35;;;;;;;5.41;83.83;92602.38;5079855;28;20044;-80
2022/01/03 20:03:19;;;;;;;23.60;9.25;;;;;;;5.42;83.56;92591.72;5076317;28;20436;-79
2022/01/03 20:05:46;;;;;;;26.75;9.07;;;;;;;5.42;83.48;92585.75;5099486;28;20252;-79
2022/01/03 20:08:12;;;;;;;29.02;9.75;;;;;;;5.43;83.44;92569.16;5063573;28;20044;-80
2022/01/03 20:10:38;;;;;;;30.23;9.57;;;;;;;5.43;83.58;92576.94;5082941;28;20062;-80
2022/01/03 20:13:06;;;;;;;24.60;10.02;;;;;;;5.46;84.08;92579.03;5076400;28;20489;-79
2022/01/03 20:15:32;;;;;;;35.50;13.25;;;;;;;5.45;83.88;92590.47;5082251;28;20024;-80
2022/01/03 20:17:59;;;;;;;26.52;9.80;;;;;;;5.47;83.87;92596.19;5076932;28;20024;-79
2022/01/03 20:20:26;;;;;;;25.13;9.32;;;;;;;5.47;83.81;92598.78;5083553;28;20040;-79
2022/01/03 20:22:52;;;;;;;26.63;8.80;;;;;;;5.46;83.52;92607.59;5099425;28;20097;-79
2022/01/03 20:25:18;;;;;;;20.25;8.38;;;;;;;5.45;83.90;92600.84;5091070;28;20036;-78
2022/01/03 20:27:44;;;;;;;27.98;8.80;;;;;;;5.45;83.75;92595.66;5090426;28;20048;-80
2022/01/03 20:30:10;;;;;;;24.15;9.52;;;;;;;5.45;83.73;92585.28;5074606;28;20032;-79
2022/01/03 20:32:38;;;;;;;27.60;8.93;;;;;;;5.47;83.85;92585.81;5076030;28;20433;-80
2022/01/03 20:35:04;;;;;;;20.65;7.97;;;;;;;5.47;83.15;92593.59;5096034;28;20024;-79